Dominia — ICFW — position and weather

sailwx.info

Track history (hours):
 
Tides and Currents Weather Stations Pressure Air Temp Water Temp Dewpoint Dewpoint Depression Visibility Wind Speed Wind Dir Waves Ship Positions

Dominia

Last reported at 2016-Aug-26 15:32 UTC. Time now 2016-Aug-28 12:06 UTC.
Position N 31°08' E 029°48'.

Length 176 m; draft 9.4 m.

Type: Tanker. MMSI: 247273400.

Date/timePositionNaut miles runAvg speedWind from/ knotsBaromVisibWave heightAir tempDewpointWater temp
2016-Aug-26 15:32N 31°08' E 029°48'  
2016-Aug-23 20:04N 31°14' E 029°44'41612.3
2016-Aug-22 10:23N 37°25' E 025°55'14912.5
2016-Aug-21 22:28N 39°54' E 025°49'1213.4
2016-Aug-21 21:33N 40°01' E 026°02'145 9.4
2016-Aug-21 06:12N 40°58' E 028°58'  
2016-Aug-18 23:04N 45°03' E 036°29'5 9.5
2016-Aug-18 22:32N 45°06' E 036°35'0 0.4
2016-Aug-18 21:29N 45°07' E 036°35'0 0.0
2016-Aug-18 19:23N 45°07' E 036°35'0 0.0
2016-Aug-18 17:08N 45°07' E 036°35'1 0.1
2016-Aug-18 11:27N 45°07' E 036°34'0 0.0
2016-Aug-18 08:30N 45°07' E 036°34'0 0.1
2016-Aug-18 07:33N 45°07' E 036°34'0 0.0
2016-Aug-18 06:33N 45°07' E 036°34'0 0.0
2016-Aug-18 05:33N 45°07' E 036°34'0 0.1
2016-Aug-18 04:27N 45°07' E 036°34'0 0.0
2016-Aug-18 02:18N 45°07' E 036°34'0 0.0
2016-Aug-18 01:33N 45°07' E 036°34'0 0.0
2016-Aug-18 00:24N 45°07' E 036°35'0 0.0
2016-Aug-17 17:09N 45°07' E 036°34'0 0.0
2016-Aug-17 16:27N 45°07' E 036°34'0 0.0
2016-Aug-17 15:30N 45°07' E 036°34'0 0.0
2016-Aug-17 14:33N 45°07' E 036°34'0 0.0
2016-Aug-17 13:33N 45°07' E 036°34'0 0.0
2016-Aug-17 12:33N 45°07' E 036°34'0 0.0
2016-Aug-17 11:33N 45°07' E 036°34'0 0.0
2016-Aug-17 10:33N 45°07' E 036°34'0 0.0
2016-Aug-17 09:30N 45°07' E 036°34'0 0.0
2016-Aug-17 08:30N 45°07' E 036°34'0 0.0
2016-Aug-17 07:33N 45°07' E 036°34'0 0.1
2016-Aug-17 06:33N 45°07' E 036°34'0 0.0
2016-Aug-17 05:30N 45°07' E 036°34'0 0.0
2016-Aug-17 04:30N 45°07' E 036°34'0 0.0
2016-Aug-17 03:33N 45°07' E 036°34'0 0.0
2016-Aug-17 02:33N 45°07' E 036°34'0 0.0
2016-Aug-17 01:33N 45°07' E 036°34'0 0.0
2016-Aug-17 00:09N 45°07' E 036°34'0 0.0
2016-Aug-16 23:18N 45°07' E 036°34'0 0.0
2016-Aug-16 22:33N 45°07' E 036°34'0 0.0
2016-Aug-16 21:33N 45°07' E 036°34'0 0.0
2016-Aug-16 20:27N 45°07' E 036°34'0 0.0
2016-Aug-16 18:33N 45°07' E 036°34'0 0.0
2016-Aug-16 17:33N 45°07' E 036°34'0 0.0
2016-Aug-16 16:27N 45°07' E 036°34'0 0.0
2016-Aug-16 15:33N 45°07' E 036°34'  
Track history (hours):
 
Tides and Currents Weather Stations Pressure Air Temp Water Temp Dewpoint Dewpoint Depression Visibility Wind Speed Wind Dir Waves Ship Positions

Dominia

Last reported at 2016-Aug-26 15:32 UTC. Time now 2016-Aug-28 12:06 UTC.
Position N 31°08' E 029°48'.

Length 176 m; draft 9.4 m.

Type: Tanker. MMSI: 247273400.

Date/timePositionNaut miles runAvg speedWind from/ knotsBaromVisibWave heightAir tempDewpointWater temp
2016-Aug-26 15:32N 31°08' E 029°48'  
2016-Aug-23 20:04N 31°14' E 029°44'41612.3
2016-Aug-22 10:23N 37°25' E 025°55'14912.5
2016-Aug-21 22:28N 39°54' E 025°49'1213.4
2016-Aug-21 21:33N 40°01' E 026°02'145 9.4
2016-Aug-21 06:12N 40°58' E 028°58'  
2016-Aug-18 23:04N 45°03' E 036°29'5 9.5
2016-Aug-18 22:32N 45°06' E 036°35'0 0.4
2016-Aug-18 21:29N 45°07' E 036°35'0 0.0
2016-Aug-18 19:23N 45°07' E 036°35'0 0.0
2016-Aug-18 17:08N 45°07' E 036°35'1 0.1
2016-Aug-18 11:27N 45°07' E 036°34'0 0.0
2016-Aug-18 08:30N 45°07' E 036°34'0 0.1
2016-Aug-18 07:33N 45°07' E 036°34'0 0.0
2016-Aug-18 06:33N 45°07' E 036°34'0 0.0
2016-Aug-18 05:33N 45°07' E 036°34'0 0.1
2016-Aug-18 04:27N 45°07' E 036°34'0 0.0
2016-Aug-18 02:18N 45°07' E 036°34'0 0.0
2016-Aug-18 01:33N 45°07' E 036°34'0 0.0
2016-Aug-18 00:24N 45°07' E 036°35'0 0.0
2016-Aug-17 17:09N 45°07' E 036°34'0 0.0
2016-Aug-17 16:27N 45°07' E 036°34'0 0.0
2016-Aug-17 15:30N 45°07' E 036°34'0 0.0
2016-Aug-17 14:33N 45°07' E 036°34'0 0.0
2016-Aug-17 13:33N 45°07' E 036°34'0 0.0
2016-Aug-17 12:33N 45°07' E 036°34'0 0.0
2016-Aug-17 11:33N 45°07' E 036°34'0 0.0
2016-Aug-17 10:33N 45°07' E 036°34'0 0.0
2016-Aug-17 09:30N 45°07' E 036°34'0 0.0
2016-Aug-17 08:30N 45°07' E 036°34'0 0.0
2016-Aug-17 07:33N 45°07' E 036°34'0 0.1
2016-Aug-17 06:33N 45°07' E 036°34'0 0.0
2016-Aug-17 05:30N 45°07' E 036°34'0 0.0
2016-Aug-17 04:30N 45°07' E 036°34'0 0.0
2016-Aug-17 03:33N 45°07' E 036°34'0 0.0
2016-Aug-17 02:33N 45°07' E 036°34'0 0.0
2016-Aug-17 01:33N 45°07' E 036°34'0 0.0
2016-Aug-17 00:09N 45°07' E 036°34'0 0.0
2016-Aug-16 23:18N 45°07' E 036°34'0 0.0
2016-Aug-16 22:33N 45°07' E 036°34'0 0.0
2016-Aug-16 21:33N 45°07' E 036°34'0 0.0
2016-Aug-16 20:27N 45°07' E 036°34'0 0.0
2016-Aug-16 18:33N 45°07' E 036°34'0 0.0
2016-Aug-16 17:33N 45°07' E 036°34'0 0.0
2016-Aug-16 16:27N 45°07' E 036°34'0 0.0
2016-Aug-16 15:33N 45°07' E 036°34'  

Dump ship's entire track history